Time,TemperatureF,DewpointF,PressureIn,WindDirection,WindDirectionDegrees,WindSpeedMPH,WindSpeedGustMPH,Humidity,HourlyPrecipIn,Conditions,Clouds,dailyrainin,SoftwareType,DateUTC
2013-01-27 00:00:00,27.3,26.0,29.93,NE,41,0.0,-999.0,96,-99.99,,,0.00,weatherlink.com 1.10,2013-01-27 07:00:00,
2013-01-27 00:16:00,27.3,26.0,29.94,NE,41,0.0,-999.0,96,-99.99,,,0.00,weatherlink.com 1.10,2013-01-27 07:16:00,
2013-01-27 00:29:00,27.3,26.0,29.94,NE,41,0.0,-999.0,96,-99.99,,,0.00,weatherlink.com 1.10,2013-01-27 07:29:00,
2013-01-27 00:43:00,27.4,26.0,29.94,NE,41,0.0,-999.0,96,-99.99,,,0.00,weatherlink.com 1.10,2013-01-27 07:43:00,
2013-01-27 00:59:00,27.5,27.0,29.94,NE,41,0.0,-999.0,96,-99.99,,,0.00,weatherlink.com 1.10,2013-01-27 07:59:00,
2013-01-27 01:17:00,27.5,27.0,29.94,NE,41,0.0,-999.0,96,-99.99,,,0.00,weatherlink.com 1.10,2013-01-27 08:17:00,
2013-01-27 01:31:00,27.5,27.0,29.94,NE,41,0.0,-999.0,96,-99.99,,,0.00,weatherlink.com 1.10,2013-01-27 08:31:00,
2013-01-27 01:46:00,27.4,26.0,29.94,NE,41,0.0,-999.0,96,-99.99,,,0.00,weatherlink.com 1.10,2013-01-27 08:46:00,
2013-01-27 02:00:00,27.2,26.0,29.94,NE,41,0.0,-999.0,96,-99.99,,,0.00,weatherlink.com 1.10,2013-01-27 09:00:00,
2013-01-27 02:13:00,27.0,26.0,29.94,NE,41,0.0,-999.0,95,-99.99,,,0.00,weatherlink.com 1.10,2013-01-27 09:13:00,
2013-01-27 02:30:00,26.7,26.0,29.94,NE,41,0.0,-999.0,95,-99.99,,,0.00,weatherlink.com 1.10,2013-01-27 09:30:00,
2013-01-27 02:49:00,26.3,25.0,29.94,NE,41,0.0,-999.0,95,-99.99,,,0.00,weatherlink.com 1.10,2013-01-27 09:49:00,
2013-01-27 03:01:00,26.5,25.0,29.94,NE,50,0.0,-999.0,95,-99.99,,,0.00,weatherlink.com 1.10,2013-01-27 10:01:00,
2013-01-27 03:15:00,26.5,25.0,29.94,NE,49,0.0,-999.0,95,-99.99,,,0.00,weatherlink.com 1.10,2013-01-27 10:15:00,
2013-01-27 03:30:00,26.2,25.0,29.94,NE,50,0.0,-999.0,95,-99.99,,,0.00,weatherlink.com 1.10,2013-01-27 10:30:00,
2013-01-27 03:45:00,25.6,24.0,29.94,NE,50,0.0,-999.0,94,-99.99,,,0.00,weatherlink.com 1.10,2013-01-27 10:45:00,
2013-01-27 03:58:00,25.3,24.0,29.94,NE,50,0.0,-999.0,95,-99.99,,,0.00,weatherlink.com 1.10,2013-01-27 10:58:00,
2013-01-27 04:14:00,24.8,23.0,29.94,NE,49,0.0,-999.0,94,-99.99,,,0.00,weatherlink.com 1.10,2013-01-27 11:14:00,
2013-01-27 04:31:00,23.9,23.0,29.94,NE,50,0.0,-999.0,94,-99.99,,,0.00,weatherlink.com 1.10,2013-01-27 11:31:00,
2013-01-27 04:43:00,23.5,22.0,29.94,NE,49,0.0,-999.0,94,-99.99,,,0.00,weatherlink.com 1.10,2013-01-27 11:43:00,
2013-01-27 05:02:00,22.7,21.0,29.94,NE,50,0.0,-999.0,94,-99.99,,,0.00,weatherlink.com 1.10,2013-01-27 12:02:00,
2013-01-27 05:14:00,22.3,21.0,29.94,NE,49,0.0,-999.0,94,-99.99,,,0.00,weatherlink.com 1.10,2013-01-27 12:14:00,
2013-01-27 05:44:00,23.0,22.0,29.95,NE,50,0.0,-999.0,95,-99.99,,,0.00,weatherlink.com 1.10,2013-01-27 12:44:00,
2013-01-27 05:59:00,23.2,22.0,29.95,NE,49,0.0,-999.0,95,-99.99,,,0.00,weatherlink.com 1.10,2013-01-27 12:59:00,
2013-01-27 06:16:00,23.3,22.0,29.96,NE,50,0.0,-999.0,96,-99.99,,,0.00,weatherlink.com 1.10,2013-01-27 13:16:00,
2013-01-27 06:30:00,23.8,23.0,29.96,NE,50,0.0,-999.0,96,-99.99,,,0.00,weatherlink.com 1.10,2013-01-27 13:30:00,
2013-01-27 06:45:00,23.8,23.0,29.96,NE,49,0.0,-999.0,95,-99.99,,,0.00,weatherlink.com 1.10,2013-01-27 13:45:00,
2013-01-27 07:00:00,24.1,23.0,29.96,NE,49,0.0,-999.0,96,-99.99,,,0.00,weatherlink.com 1.10,2013-01-27 14:00:00,
2013-01-27 07:22:00,24.2,23.0,29.97,NE,50,0.0,-999.0,95,-99.99,,,0.00,weatherlink.com 1.10,2013-01-27 14:22:00,
2013-01-27 07:29:00,24.2,23.0,29.97,NE,49,0.0,-999.0,95,-99.99,,,0.00,weatherlink.com 1.10,2013-01-27 14:29:00,
2013-01-27 07:43:00,24.4,24.0,29.97,NE,50,0.0,-999.0,96,-99.99,,,0.00,weatherlink.com 1.10,2013-01-27 14:43:00,
2013-01-27 07:59:00,24.6,24.0,29.97,NE,50,0.0,-999.0,96,-99.99,,,0.00,weatherlink.com 1.10,2013-01-27 14:59:00,
2013-01-27 08:13:00,24.9,24.0,29.98,NE,50,0.0,-999.0,96,-99.99,,,0.00,weatherlink.com 1.10,2013-01-27 15:13:00,
2013-01-27 08:28:00,25.0,24.0,29.97,NE,50,0.0,-999.0,96,-99.99,,,0.00,weatherlink.com 1.10,2013-01-27 15:28:00,
2013-01-27 08:43:00,25.1,24.0,29.97,NE,50,0.0,-999.0,95,-99.99,,,0.00,weatherlink.com 1.10,2013-01-27 15:43:00,
2013-01-27 08:58:00,24.7,24.0,29.97,NE,50,0.0,-999.0,95,-99.99,,,0.00,weatherlink.com 1.10,2013-01-27 15:58:00,
2013-01-27 09:15:00,26.2,25.0,29.97,NE,50,0.0,-999.0,96,-99.99,,,0.00,weatherlink.com 1.10,2013-01-27 16:15:00,
2013-01-27 09:30:00,29.6,29.0,29.98,NE,50,0.0,-999.0,97,-99.99,,,0.00,weatherlink.com 1.10,2013-01-27 16:30:00,
2013-01-27 09:44:00,32.7,30.0,29.98,NE,51,1.0,-999.0,89,-99.99,,,0.00,weatherlink.com 1.10,2013-01-27 16:44:00,
2013-01-27 09:59:00,34.4,30.0,29.98,NE,51,0.0,-999.0,84,-99.99,,,0.03,weatherlink.com 1.10,2013-01-27 16:59:00,
2013-01-27 10:14:00,34.8,30.0,29.99,ENE,60,0.0,-999.0,82,-99.99,,,0.05,weatherlink.com 1.10,2013-01-27 17:14:00,
2013-01-27 10:28:00,34.9,30.0,29.99,East,91,4.0,-999.0,83,-99.99,,,0.06,weatherlink.com 1.10,2013-01-27 17:28:00,
2013-01-27 10:46:00,33.7,30.0,29.99,NE,49,1.0,-999.0,85,-99.99,,,0.07,weatherlink.com 1.10,2013-01-27 17:46:00,
2013-01-27 11:02:00,34.3,30.0,29.99,NNE,22,0.0,-999.0,84,-99.99,,,0.07,weatherlink.com 1.10,2013-01-27 18:02:00,
2013-01-27 11:14:00,34.1,30.0,29.99,North,11,0.0,-999.0,84,-99.99,,,0.07,weatherlink.com 1.10,2013-01-27 18:14:00,
2013-01-27 11:28:00,34.0,30.0,29.99,North,11,0.0,-999.0,84,-99.99,,,0.07,weatherlink.com 1.10,2013-01-27 18:28:00,
2013-01-27 11:46:00,34.1,30.0,29.98,NNE,26,0.0,-999.0,83,-99.99,,,0.07,weatherlink.com 1.10,2013-01-27 18:46:00,
2013-01-27 11:58:00,35.3,31.0,29.97,NNE,25,0.0,-999.0,84,-99.99,,,0.07,weatherlink.com 1.10,2013-01-27 18:58:00,
2013-01-27 12:16:00,37.0,31.0,29.96,NE,36,0.0,-999.0,79,-99.99,,,0.07,weatherlink.com 1.10,2013-01-27 19:16:00,
2013-01-27 12:28:00,38.0,31.0,29.96,ENE,70,1.0,-999.0,75,-99.99,,,0.07,weatherlink.com 1.10,2013-01-27 19:28:00,
2013-01-27 12:43:00,40.3,30.0,29.95,ENE,69,0.0,-999.0,67,-99.99,,,0.07,weatherlink.com 1.10,2013-01-27 19:43:00,
2013-01-27 12:58:00,42.3,26.0,29.94,ESE,108,1.0,-999.0,52,-99.99,,,0.07,weatherlink.com 1.10,2013-01-27 19:58:00,
2013-01-27 13:16:00,43.2,22.0,29.93,South,187,0.0,-999.0,44,-99.99,,,0.07,weatherlink.com 1.10,2013-01-27 20:16:00,
2013-01-27 13:31:00,43.5,21.0,29.93,SW,217,3.0,-999.0,41,-99.99,,,0.07,weatherlink.com 1.10,2013-01-27 20:31:00,
2013-01-27 13:46:00,42.8,22.0,29.93,SW,233,1.0,-999.0,44,-99.99,,,0.07,weatherlink.com 1.10,2013-01-27 20:46:00,
2013-01-27 14:00:00,42.4,20.0,29.93,SW,230,0.0,-999.0,41,-99.99,,,0.07,weatherlink.com 1.10,2013-01-27 21:00:00,
2013-01-27 14:15:00,42.3,21.0,29.93,SSE,150,2.0,-999.0,42,-99.99,,,0.07,weatherlink.com 1.10,2013-01-27 21:15:00,
2013-01-27 14:35:00,42.1,19.0,29.93,SW,222,4.0,-999.0,39,-99.99,,,0.07,weatherlink.com 1.10,2013-01-27 21:35:00,
2013-01-27 14:43:00,42.1,20.0,29.93,WSW,237,2.0,-999.0,41,-99.99,,,0.07,weatherlink.com 1.10,2013-01-27 21:43:00,
2013-01-27 15:01:00,41.1,19.0,29.94,SE,134,1.0,-999.0,41,-99.99,,,0.07,weatherlink.com 1.10,2013-01-27 22:01:00,
2013-01-27 15:15:00,40.4,16.0,29.94,SSW,199,0.0,-999.0,37,-99.99,,,0.07,weatherlink.com 1.10,2013-01-27 22:15:00,
2013-01-27 15:29:00,40.2,16.0,29.94,WSW,250,3.0,-999.0,37,-99.99,,,0.07,weatherlink.com 1.10,2013-01-27 22:29:00,
2013-01-27 15:43:00,39.7,16.0,29.94,SW,225,1.0,-999.0,39,-99.99,,,0.07,weatherlink.com 1.10,2013-01-27 22:43:00,
2013-01-27 16:03:00,39.5,18.0,29.94,SSW,211,4.0,-999.0,42,-99.99,,,0.07,weatherlink.com 1.10,2013-01-27 23:03:00,
2013-01-27 16:16:00,37.9,15.0,29.94,South,182,0.0,-999.0,39,-99.99,,,0.07,weatherlink.com 1.10,2013-01-27 23:16:00,
2013-01-27 16:31:00,35.9,15.0,29.95,SW,229,0.0,-999.0,43,-99.99,,,0.07,weatherlink.com 1.10,2013-01-27 23:31:00,
2013-01-27 16:46:00,34.0,14.0,29.95,SSW,213,0.0,-999.0,44,-99.99,,,0.07,weatherlink.com 1.10,2013-01-27 23:46:00,
2013-01-27 16:59:00,33.2,14.0,29.96,SE,140,0.0,-999.0,45,-99.99,,,0.07,weatherlink.com 1.10,2013-01-27 23:59:00,
2013-01-27 17:13:00,31.7,14.0,29.96,SSE,153,0.0,-999.0,48,-99.99,,,0.07,weatherlink.com 1.10,2013-01-28 00:13:00,
2013-01-27 17:35:00,30.5,15.0,29.97,South,181,0.0,-999.0,53,-99.99,,,0.07,weatherlink.com 1.10,2013-01-28 00:35:00,
2013-01-27 17:47:00,29.4,16.0,29.96,South,181,0.0,-999.0,57,-99.99,,,0.07,weatherlink.com 1.10,2013-01-28 00:47:00,
2013-01-27 17:59:00,27.8,16.0,29.96,South,180,0.0,-999.0,62,-99.99,,,0.07,weatherlink.com 1.10,2013-01-28 00:59:00,
2013-01-27 18:16:00,26.5,16.0,29.96,South,186,3.0,-999.0,64,-99.99,,,0.07,weatherlink.com 1.10,2013-01-28 01:16:00,
2013-01-27 18:30:00,26.1,16.0,29.96,South,172,0.0,-999.0,66,-99.99,,,0.07,weatherlink.com 1.10,2013-01-28 01:30:00,
2013-01-27 18:51:00,25.6,16.0,29.97,SSE,148,1.0,-999.0,66,-99.99,,,0.07,weatherlink.com 1.10,2013-01-28 01:51:00,
2013-01-27 19:01:00,25.6,16.0,29.97,SSE,149,0.0,-999.0,66,-99.99,,,0.07,weatherlink.com 1.10,2013-01-28 02:01:00,
2013-01-27 19:15:00,24.9,15.0,29.97,SSE,149,0.0,-999.0,67,-99.99,,,0.07,weatherlink.com 1.10,2013-01-28 02:15:00,
2013-01-27 19:29:00,23.9,15.0,29.96,SSE,149,0.0,-999.0,70,-99.99,,,0.07,weatherlink.com 1.10,2013-01-28 02:29:00,
2013-01-27 19:43:00,23.2,15.0,29.96,SSE,149,0.0,-999.0,72,-99.99,,,0.07,weatherlink.com 1.10,2013-01-28 02:43:00,
2013-01-27 20:01:00,23.7,16.0,29.96,ESE,122,0.0,-999.0,73,-99.99,,,0.07,weatherlink.com 1.10,2013-01-28 03:01:00,
2013-01-27 20:15:00,24.1,17.0,29.96,ESE,122,0.0,-999.0,74,-99.99,,,0.07,weatherlink.com 1.10,2013-01-28 03:15:00,
2013-01-27 20:29:00,24.4,17.0,29.96,ESE,122,0.0,-999.0,73,-99.99,,,0.07,weatherlink.com 1.10,2013-01-28 03:29:00,
2013-01-27 20:44:00,24.4,17.0,29.96,ESE,123,0.0,-999.0,74,-99.99,,,0.07,weatherlink.com 1.10,2013-01-28 03:44:00,
2013-01-27 20:58:00,24.7,19.0,29.95,ESE,123,0.0,-999.0,78,-99.99,,,0.07,weatherlink.com 1.10,2013-01-28 03:58:00,
2013-01-27 21:16:00,24.0,18.0,29.95,ESE,122,0.0,-999.0,79,-99.99,,,0.07,weatherlink.com 1.10,2013-01-28 04:16:00,
2013-01-27 21:28:00,23.8,18.0,29.95,ESE,123,0.0,-999.0,79,-99.99,,,0.07,weatherlink.com 1.10,2013-01-28 04:28:00,
2013-01-27 21:44:00,23.0,17.0,29.93,ESE,123,0.0,-999.0,77,-99.99,,,0.07,weatherlink.com 1.10,2013-01-28 04:44:00,
2013-01-27 21:58:00,22.0,17.0,29.93,ESE,122,0.0,-999.0,81,-99.99,,,0.07,weatherlink.com 1.10,2013-01-28 04:58:00,
2013-01-27 22:18:00,21.4,17.0,29.93,ESE,123,0.0,-999.0,83,-99.99,,,0.07,weatherlink.com 1.10,2013-01-28 05:18:00,
2013-01-27 22:29:00,20.9,17.0,29.92,ESE,123,0.0,-999.0,83,-99.99,,,0.07,weatherlink.com 1.10,2013-01-28 05:29:00,
2013-01-27 22:43:00,20.9,17.0,29.92,ESE,123,0.0,-999.0,84,-99.99,,,0.07,weatherlink.com 1.10,2013-01-28 05:43:00,
2013-01-27 23:01:00,21.3,18.0,29.92,ESE,123,0.0,-999.0,86,-99.99,,,0.07,weatherlink.com 1.10,2013-01-28 06:01:00,
2013-01-27 23:15:00,22.0,19.0,29.93,ESE,122,0.0,-999.0,87,-99.99,,,0.07,weatherlink.com 1.10,2013-01-28 06:15:00,
2013-01-27 23:29:00,23.8,22.0,29.93,SW,217,0.0,-999.0,91,-99.99,,,0.07,weatherlink.com 1.10,2013-01-28 06:29:00,
2013-01-27 23:45:00,25.5,22.0,29.93,South,173,0.0,-999.0,87,-99.99,,,0.07,weatherlink.com 1.10,2013-01-28 06:45:00,
2013-01-27 23:59:00,25.3,22.0,29.93,South,173,0.0,-999.0,87,-99.99,,,0.07,weatherlink.com 1.10,2013-01-28 06:59:00,